Millerton, Louisiana
Current Conditions -  °F | °C
As of 9:53 PM on Wednesday 28 Jan 2015 (Local Time) from KELD Reporting Station
Clear Clear  
Wind Chill: 59°   Ceiling: Unl
Heat Index: 59°   Visibility: 10mi
Dew Point: 41°   Wind: 9mph
Humidity: 51%   Direction: 180°S
Pressure: 30.08"   Gusts: 18mph
Location:  32.9128°N, 93.0286°W
Report Text: KELD 290353Z AUTO 18008G16KT 10SM CLR 15/05 A3008 RMK AO2 SLP183 T01500050 $
Loading
Personal Weather Stations






























Interactive Weather Map New forecast layout! Learn more

10-Day Weather Forecast

Advertisements
Track Severe Weather on mobile